Willow Island, West Virginia
Current Conditions -  °F | °C
As of 7:53 PM on Sunday 23 Nov 2014 (Local Time) from KPKB Reporting Station
Light Rain Light Rain  
Wind Chill: 14°   Ceiling: 8500
Heat Index: 14°   Visibility: 10mi
Dew Point:   Wind: 8mph
Humidity: 69%   Direction: 130°SE
Pressure: 29.66"   Gusts: NA
Location:  39.3518°N, 81.2939°W
Report Text: KPKB 240053Z 13007KT 10SM -RA OVC085 14/08 A2966 RMK AO2 SLP043 P0001 T01390083
Loading
Personal Weather Stations






























Interactive Weather Map New forecast layout! Learn more

10-Day Weather Forecast

Advertisements
Track Severe Weather on mobile